Terminal Aerodrome Forecast
Issued by NWS

Home | Current Version | Previous Version | Text Only | Print | Product List | Glossary On
Versions: 1 2 3 4 5 6 7 8 9 10 11 12 13
000
FTUS41 KCAR 251133
TAFPQI
TAF
KPQI 251133Z 2512/2612 03004KT 4SM -SN SCT025 OVC035
     FM251500 29015G25KT P6SM -SN OVC025
     FM251900 30020G30KT P6SM SCT020 OVC040
     FM260000 29015G25KT P6SM SCT040
     FM260600 30010G20KT P6SM SKC
      AMD NOT SKED=

USA.gov is the U.S. government's official web portal to all federal, state and local government web resources and services.